Troy, Wisconsin
Current Conditions -  °F | °C
As of 8:31 AM on Friday 24 Oct 2014 (Local Time) from K21D Reporting Station
Broken Clouds Broken Clouds  
Wind Chill: 46°   Ceiling: 4200
Heat Index: 48°   Visibility: 10mi
Dew Point: 46°   Wind: 5mph
Humidity: 93%   Direction: 150°SSE
Pressure: 29.91"   Gusts: NA
Location:  44.8561°N, 92.6272°W
Report Text: K21D 241331Z AUTO 15004KT 10SM BKN042 09/08 A2991 RMK AO2
Loading
Personal Weather Stations






























Interactive Weather Map
Tropical Storm Tracking
New forecast layout! Learn more

10-Day Weather Forecast

Advertisements
Track Severe Weather on mobile